Charleston Heights, South Carolina
Current Conditions -  °F | °C
As of 4:56 AM on Wednesday 22 Oct 2014 (Local Time) from KCHS Reporting Station
Clear Clear  
Wind Chill: 54°   Ceiling: Unl
Heat Index: 54°   Visibility: 10mi
Dew Point: 45°   Wind: 7mph
Humidity: 72%   Direction: 340°NNW
Pressure: 29.95"   Gusts: NA
Location:  32.8713°N, 80.0388°W
Report Text: KCHS 220856Z 34006KT 10SM CLR 12/07 A2995 RMK AO2 SLP140 T01220072 53006
Loading
Personal Weather Stations






























Interactive Weather Map
Tropical Storm Tracking
New forecast layout! Learn more

10-Day Weather Forecast

Advertisements
Track Severe Weather on mobile